Time;durP1;ratioP1;P1;durP2;ratioP2;P2;SDS_P1;SDS_P2;PMS_P1;PMS_P2;Temp;Humidity;BMP_temperature;BMP_pressure;BME280_temperature;BME280_humidity;BME280_pressure;Samples;Min_cycle;Max_cycle;Signal;HPM_P1;HPM_P2
2023/06/27 00:01:23;;;;;;;12.40;7.40;;;26.70;74.90;;;;;;5052841;28;20056;-68
2023/06/27 00:03:51;;;;;;;12.57;7.85;;;26.70;75.00;;;;;;5052870;28;20045;-71
2023/06/27 00:06:20;;;;;;;14.48;7.10;;;26.70;74.80;;;;;;5052797;28;20056;-68
2023/06/27 00:08:49;;;;;;;11.30;7.65;;;26.70;74.70;;;;;;5052666;28;20489;-68
2023/06/27 00:11:16;;;;;;;10.77;7.05;;;26.70;74.80;;;;;;5052557;28;20044;-67
2023/06/27 00:13:43;;;;;;;14.15;7.68;;;26.80;74.10;;;;;;5051892;28;20200;-67
2023/06/27 00:16:13;;;;;;;13.07;7.03;;;26.80;74.60;;;;;;5052391;28;20104;-68
2023/06/27 00:18:40;;;;;;;14.65;7.75;;;26.80;74.60;;;;;;5052276;28;20482;-68
2023/06/27 00:21:06;;;;;;;11.98;7.65;;;26.80;74.50;;;;;;5052324;28;20033;-67
2023/06/27 00:23:34;;;;;;;13.75;8.13;;;26.80;74.50;;;;;;5052279;28;20048;-68
2023/06/27 00:26:02;;;;;;;14.50;7.40;;;26.90;73.90;;;;;;5052435;28;20057;-67
2023/06/27 00:28:28;;;;;;;14.07;7.70;;;26.90;74.30;;;;;;5052345;28;20426;-68
2023/06/27 00:30:54;;;;;;;11.38;8.00;;;26.80;74.10;;;;;;5052001;28;20029;-69
2023/06/27 00:33:20;;;;;;;13.40;8.30;;;26.80;73.70;;;;;;5052199;28;20107;-67
2023/06/27 00:35:45;;;;;;;16.02;7.50;;;26.80;73.60;;;;;;5052145;28;20037;-67
2023/06/27 00:38:11;;;;;;;10.18;7.50;;;26.80;73.80;;;;;;5052132;28;20100;-68
2023/06/27 00:40:37;;;;;;;9.88;7.53;;;26.80;73.80;;;;;;5051981;28;20402;-68
2023/06/27 00:43:03;;;;;;;14.65;7.85;;;26.80;73.50;;;;;;5033796;28;20049;-68
2023/06/27 00:45:29;;;;;;;14.48;8.10;;;26.80;73.20;;;;;;5052093;28;20072;-69
2023/06/27 00:47:56;;;;;;;14.15;7.90;;;26.80;73.30;;;;;;5051589;28;20048;-69
2023/06/27 00:50:23;;;;;;;14.60;7.95;;;26.80;72.80;;;;;;5051706;28;20418;-68
2023/06/27 00:52:51;;;;;;;21.08;9.60;;;26.70;72.00;;;;;;5051608;28;20427;-68
2023/06/27 00:55:17;;;;;;;12.90;7.82;;;26.60;71.40;;;;;;5051724;28;20052;-69
2023/06/27 00:57:46;;;;;;;11.55;7.78;;;26.60;71.00;;;;;;5051592;28;20037;-67
2023/06/27 01:00:13;;;;;;;14.48;8.35;;;26.60;70.90;;;;;;5051700;28;20160;-68
2023/06/27 01:02:39;;;;;;;16.85;8.13;;;26.60;70.20;;;;;;5051388;28;20059;-68
2023/06/27 01:05:07;;;;;;;14.45;8.38;;;26.60;70.30;;;;;;5033650;28;20486;-69
2023/06/27 01:07:39;;;;;;;11.90;8.35;;;26.60;69.80;;;;;;5051502;28;20032;-67
2023/06/27 01:10:29;;;;;;;14.20;8.25;;;26.50;69.70;;;;;;5051349;28;20113;-68
2023/06/27 01:13:13;;;;;;;11.25;7.50;;;26.40;69.00;;;;;;5051714;28;20115;-68
2023/06/27 01:15:39;;;;;;;;;;;26.40;68.70;;;;;;5051749;28;20051;-68
2023/06/27 01:18:06;;;;;;;13.90;7.82;;;26.40;69.30;;;;;;5051315;28;19941;-68
2023/06/27 01:20:33;;;;;;;10.43;7.72;;;26.40;69.20;;;;;;5051178;28;20037;-69
2023/06/27 01:23:24;;;;;;;10.27;7.25;;;26.40;68.80;;;;;;5051282;28;20037;-69
2023/06/27 01:25:53;;;;;;;10.18;7.50;;;26.40;69.10;;;;;;5050483;28;20033;-69
2023/06/27 01:28:19;;;;;;;11.75;7.72;;;26.30;69.00;;;;;;5051130;28;20374;-67
2023/06/27 01:30:45;;;;;;;12.73;7.38;;;26.30;68.90;;;;;;5051035;28;20036;-68
2023/06/27 01:33:17;;;;;;;13.90;7.68;;;26.30;68.90;;;;;;5051324;28;20044;-69
2023/06/27 01:35:54;;;;;;;11.57;8.27;;;26.20;68.60;;;;;;5051467;28;20025;-68
2023/06/27 01:38:28;;;;;;;10.85;7.53;;;26.20;68.10;;;;;;5051007;28;20505;-69
2023/06/27 01:40:57;;;;;;;12.48;8.10;;;26.10;68.50;;;;;;5051033;28;20080;-67
2023/06/27 01:43:23;;;;;;;12.68;8.23;;;26.00;68.60;;;;;;5050673;28;20079;-67
2023/06/27 01:45:51;;;;;;;10.82;7.82;;;26.00;68.80;;;;;;5050911;28;20029;-68
2023/06/27 01:48:17;;;;;;;14.02;7.60;;;25.90;68.80;;;;;;5050931;28;20029;-70
2023/06/27 01:50:43;;;;;;;13.88;7.93;;;26.00;69.00;;;;;;5051013;28;20080;-68
2023/06/27 01:53:08;;;;;;;12.10;7.70;;;26.00;68.70;;;;;;5051109;28;20033;-69
2023/06/27 01:55:34;;;;;;;11.40;7.32;;;26.00;68.50;;;;;;5050778;28;20124;-69
2023/06/27 01:58:00;;;;;;;12.77;7.50;;;25.90;68.50;;;;;;5050845;28;20407;-69
2023/06/27 02:00:27;;;;;;;12.88;7.70;;;25.90;68.40;;;;;;5050815;28;20455;-67
2023/06/27 02:02:52;;;;;;;11.77;7.18;;;25.90;68.20;;;;;;5050608;28;20045;-68
2023/06/27 02:05:18;;;;;;;14.00;7.60;;;25.90;68.40;;;;;;5050813;28;20104;-69
2023/06/27 02:07:44;;;;;;;12.13;7.05;;;25.90;68.20;;;;;;5051052;28;20112;-71
2023/06/27 02:10:10;;;;;;;11.23;7.00;;;25.90;68.10;;;;;;5051363;28;20029;-69
2023/06/27 02:12:35;;;;;;;12.85;7.40;;;25.90;68.00;;;;;;5051529;28;20391;-67
2023/06/27 02:15:01;;;;;;;10.73;6.65;;;25.90;68.10;;;;;;5051581;28;20398;-69
2023/06/27 02:17:27;;;;;;;13.18;6.88;;;25.90;68.10;;;;;;5051878;28;20034;-67
2023/06/27 02:19:53;;;;;;;10.27;7.00;;;25.90;67.80;;;;;;5033779;28;20512;-68
2023/06/27 02:22:18;;;;;;;12.15;7.03;;;25.80;67.80;;;;;;5051675;28;20565;-69
2023/06/27 02:24:44;;;;;;;11.93;7.13;;;25.70;67.70;;;;;;5051688;28;20041;-68
2023/06/27 02:27:10;;;;;;;10.07;6.82;;;25.70;67.90;;;;;;5051635;28;20036;-68
2023/06/27 02:29:35;;;;;;;11.73;7.35;;;25.70;68.00;;;;;;5051748;28;20041;-70
2023/06/27 02:32:01;;;;;;;11.40;6.93;;;25.70;68.10;;;;;;5051809;28;20386;-67
2023/06/27 02:34:28;;;;;;;11.43;7.15;;;25.70;68.10;;;;;;5051749;28;20126;-68
2023/06/27 02:36:53;;;;;;;9.90;7.18;;;25.70;68.10;;;;;;5051561;28;20041;-68
2023/06/27 02:39:19;;;;;;;10.40;7.18;;;25.60;67.90;;;;;;5055045;28;20028;-69
2023/06/27 02:41:44;;;;;;;9.65;7.18;;;25.60;67.90;;;;;;5055139;28;20091;-68
2023/06/27 02:44:10;;;;;;;11.23;7.53;;;25.60;67.90;;;;;;5054834;28;20521;-69
2023/06/27 02:46:36;;;;;;;9.55;6.93;;;25.60;67.80;;;;;;5055178;28;20548;-67
2023/06/27 02:49:02;;;;;;;12.50;6.93;;;25.60;67.90;;;;;;5055058;28;20033;-68
2023/06/27 02:51:27;;;;;;;10.60;7.25;;;25.50;67.90;;;;;;5054884;28;20056;-68
2023/06/27 02:53:53;;;;;;;9.15;7.13;;;25.40;67.90;;;;;;5054881;28;20120;-68
2023/06/27 02:56:18;;;;;;;13.98;7.10;;;25.40;68.10;;;;;;5054602;28;20537;-68
2023/06/27 02:58:44;;;;;;;13.43;7.80;;;25.40;67.90;;;;;;5054425;28;20199;-68
2023/06/27 03:01:10;;;;;;;11.02;7.07;;;25.40;68.00;;;;;;5053923;28;20086;-68
2023/06/27 03:03:36;;;;;;;10.80;7.30;;;25.40;67.80;;;;;;5053938;28;20507;-68
2023/06/27 03:06:08;;;;;;;9.93;6.63;;;25.30;67.80;;;;;;5053782;28;20087;-68
2023/06/27 03:08:40;;;;;;;13.15;7.20;;;25.30;67.50;;;;;;5053709;28;20033;-68
2023/06/27 03:11:06;;;;;;;10.57;6.93;;;25.30;68.20;;;;;;5053601;28;20037;-68
2023/06/27 03:13:31;;;;;;;11.30;7.15;;;25.30;68.00;;;;;;5053319;28;20095;-68
2023/06/27 03:15:57;;;;;;;9.30;6.75;;;25.30;67.70;;;;;;5053315;28;20096;-68
2023/06/27 03:18:23;;;;;;;8.43;6.32;;;25.40;67.50;;;;;;5053557;28;20037;-67
2023/06/27 03:20:49;;;;;;;8.98;6.80;;;25.30;67.30;;;;;;5053415;28;20497;-68
2023/06/27 03:23:14;;;;;;;9.57;6.38;;;25.30;67.80;;;;;;5053205;28;20040;-67
2023/06/27 03:25:40;;;;;;;10.95;6.55;;;25.40;67.10;;;;;;5052997;28;20501;-68
2023/06/27 03:28:06;;;;;;;9.93;6.05;;;25.30;66.80;;;;;;5053099;28;20037;-67
2023/06/27 03:30:32;;;;;;;10.07;6.35;;;25.30;66.90;;;;;;5035324;28;20258;-67
2023/06/27 03:32:57;;;;;;;8.90;6.50;;;25.20;66.80;;;;;;5053324;28;20029;-67
2023/06/27 03:35:23;;;;;;;13.07;6.55;;;25.10;66.80;;;;;;5053149;28;20094;-67
2023/06/27 03:37:50;;;;;;;13.52;6.70;;;25.10;66.90;;;;;;5053183;28;20483;-68
2023/06/27 03:40:17;;;;;;;9.57;6.57;;;25.10;66.70;;;;;;5052859;28;20516;-67
2023/06/27 03:42:43;;;;;;;11.43;6.35;;;25.10;67.10;;;;;;5053354;28;20041;-67
2023/06/27 03:45:09;;;;;;;13.45;6.70;;;25.10;66.90;;;;;;5053098;28;20101;-68
2023/06/27 03:47:34;;;;;;;9.75;6.40;;;25.10;66.60;;;;;;5052955;28;20040;-69
2023/06/27 03:50:00;;;;;;;10.07;6.03;;;25.10;66.70;;;;;;5051970;28;20040;-68
2023/06/27 03:52:26;;;;;;;9.55;5.85;;;25.10;66.50;;;;;;5052570;28;20040;-67
2023/06/27 03:54:51;;;;;;;8.55;6.32;;;25.00;66.40;;;;;;5053184;28;20044;-68
2023/06/27 03:57:17;;;;;;;10.25;6.18;;;25.00;66.50;;;;;;5052939;28;20087;-68
2023/06/27 03:59:43;;;;;;;8.30;6.43;;;25.00;66.60;;;;;;5052987;28;20033;-67
2023/06/27 04:02:08;;;;;;;15.13;6.75;;;25.00;66.50;;;;;;5052528;28;20110;-67
2023/06/27 04:04:34;;;;;;;10.27;6.20;;;24.90;66.40;;;;;;5052134;28;20120;-69
2023/06/27 04:07:00;;;;;;;12.65;7.05;;;24.90;66.50;;;;;;5053166;28;20055;-69
2023/06/27 04:09:25;;;;;;;10.13;6.22;;;25.00;67.20;;;;;;5053402;28;20044;-68
2023/06/27 04:11:51;;;;;;;9.50;6.07;;;25.00;66.90;;;;;;5053421;28;20037;-67
2023/06/27 04:14:17;;;;;;;10.95;6.13;;;25.00;66.70;;;;;;5052869;28;20065;-68
2023/06/27 04:16:44;;;;;;;9.60;6.57;;;25.00;66.80;;;;;;5052947;28;20410;-68
2023/06/27 04:19:10;;;;;;;9.98;6.43;;;24.90;66.90;;;;;;5052286;28;20048;-67
2023/06/27 04:21:35;;;;;;;10.98;6.70;;;24.90;67.10;;;;;;5034401;28;20037;-67
2023/06/27 04:24:01;;;;;;;11.57;6.32;;;24.90;66.80;;;;;;5051889;28;20150;-68
2023/06/27 04:26:27;;;;;;;8.88;6.30;;;24.90;67.30;;;;;;5052033;28;20068;-68
2023/06/27 04:28:52;;;;;;;10.77;6.20;;;24.90;67.00;;;;;;5052112;28;20033;-68
2023/06/27 04:31:18;;;;;;;10.30;6.30;;;25.00;67.10;;;;;;5052008;28;20174;-68
2023/06/27 04:33:44;;;;;;;13.13;6.63;;;25.00;67.10;;;;;;5052209;28;20033;-67
2023/06/27 04:36:15;;;;;;;11.43;6.78;;;25.10;67.00;;;;;;5052593;28;20040;-68
2023/06/27 04:38:43;;;;;;;9.05;6.47;;;25.10;67.00;;;;;;5052059;28;20502;-68
2023/06/27 04:41:10;;;;;;;10.38;6.78;;;25.10;67.00;;;;;;5052026;28;20033;-69
2023/06/27 04:43:39;;;;;;;15.30;7.18;;;25.10;66.90;;;;;;5051874;28;20049;-70
2023/06/27 04:46:05;;;;;;;11.25;6.72;;;25.10;67.20;;;;;;5052165;28;20033;-68
2023/06/27 04:48:30;;;;;;;12.90;7.55;;;25.10;67.10;;;;;;5052170;28;20068;-68
2023/06/27 04:50:56;;;;;;;12.35;7.70;;;25.10;67.10;;;;;;5052292;28;20493;-68
2023/06/27 04:53:22;;;;;;;11.32;7.07;;;25.10;67.00;;;;;;5052067;28;20029;-68
2023/06/27 04:55:49;;;;;;;12.93;6.75;;;25.20;67.10;;;;;;5052164;28;20036;-69
2023/06/27 04:58:18;;;;;;;10.50;6.82;;;25.20;67.20;;;;;;5052360;28;20060;-68
2023/06/27 05:00:44;;;;;;;11.35;6.75;;;25.20;67.00;;;;;;5052209;28;20094;-68
2023/06/27 05:03:11;;;;;;;9.77;6.25;;;25.30;66.80;;;;;;5051913;28;20041;-68
2023/06/27 05:05:36;;;;;;;14.07;6.55;;;25.30;66.50;;;;;;5051797;28;20104;-67
2023/06/27 05:08:03;;;;;;;10.90;6.72;;;25.40;66.10;;;;;;5051857;28;20064;-68
2023/06/27 05:10:30;;;;;;;10.45;6.97;;;25.50;66.00;;;;;;5051717;28;20056;-68
2023/06/27 05:12:57;;;;;;;11.73;6.82;;;25.60;65.70;;;;;;5034170;28;20037;-68
2023/06/27 05:15:22;;;;;;;9.00;6.18;;;25.70;65.50;;;;;;5052040;28;20356;-68
2023/06/27 05:18:06;;;;;;;16.73;6.95;;;25.80;65.50;;;;;;5052335;28;20036;-69
2023/06/27 05:20:32;;;;;;;13.00;7.05;;;26.00;65.20;;;;;;5052548;28;20085;-68
2023/06/27 05:22:58;;;;;;;10.35;6.03;;;26.10;64.80;;;;;;5051428;28;20486;-67
2023/06/27 05:25:23;;;;;;;12.90;7.03;;;26.50;63.60;;;;;;5051148;28;20025;-67
2023/06/27 05:27:49;;;;;;;13.13;7.05;;;26.80;62.50;;;;;;5051186;28;20040;-69
2023/06/27 05:30:15;;;;;;;10.80;7.03;;;27.20;61.90;;;;;;5051062;28;20057;-69
2023/06/27 05:32:40;;;;;;;10.15;6.03;;;27.60;61.40;;;;;;5051126;28;20057;-69
2023/06/27 05:35:07;;;;;;;10.10;6.07;;;27.90;60.10;;;;;;5051541;28;20041;-68
2023/06/27 05:37:32;;;;;;;10.15;6.53;;;28.20;59.90;;;;;;5033277;28;20029;-69
2023/06/27 05:39:58;;;;;;;10.27;6.75;;;28.30;58.90;;;;;;5051986;28;20401;-73
2023/06/27 05:42:24;;;;;;;11.00;6.07;;;28.50;58.90;;;;;;5051964;28;20029;-79
2023/06/27 05:44:49;;;;;;;8.85;6.32;;;28.80;58.30;;;;;;5051848;28;20514;-73
2023/06/27 05:47:16;;;;;;;9.77;6.50;;;29.10;57.70;;;;;;5052432;28;20039;-76
2023/06/27 05:49:41;;;;;;;10.57;7.00;;;29.30;56.80;;;;;;5049028;28;20037;-75
2023/06/27 05:52:07;;;;;;;13.30;6.22;;;29.70;56.50;;;;;;5048123;28;20037;-75
2023/06/27 05:54:33;;;;;;;9.90;5.97;;;30.00;55.10;;;;;;5052617;28;20501;-75
2023/06/27 05:56:59;;;;;;;11.60;6.50;;;30.30;54.60;;;;;;5051616;28;20374;-75
2023/06/27 05:59:24;;;;;;;14.63;6.47;;;30.40;54.40;;;;;;5051783;28;20040;-75
2023/06/27 06:01:50;;;;;;;9.90;6.10;;;30.70;54.00;;;;;;5061551;28;20041;-74
2023/06/27 06:04:16;;;;;;;11.38;6.00;;;31.10;53.20;;;;;;5071504;28;20048;-75
2023/06/27 06:06:41;;;;;;;8.85;5.55;;;31.50;53.00;;;;;;5071487;28;20040;-75
2023/06/27 06:09:07;;;;;;;9.05;6.00;;;31.50;52.20;;;;;;5071342;28;20378;-74
2023/06/27 06:11:36;;;;;;;9.05;6.15;;;31.60;51.90;;;;;;5071409;28;20028;-75
2023/06/27 06:14:03;;;;;;;14.00;6.65;;;31.90;51.30;;;;;;5050561;28;20074;-75
2023/06/27 06:16:33;;;;;;;12.77;6.72;;;32.10;51.40;;;;;;5044180;28;20114;-75
2023/06/27 06:18:59;;;;;;;13.45;6.28;;;32.40;51.10;;;;;;5052576;28;20037;-73
2023/06/27 06:21:26;;;;;;;13.00;6.63;;;32.40;50.90;;;;;;5037209;28;20037;-74
2023/06/27 06:23:52;;;;;;;12.82;6.90;;;32.50;50.60;;;;;;5054717;28;20146;-77
2023/06/27 06:26:18;;;;;;;12.80;6.50;;;32.70;50.40;;;;;;5043573;28;20037;-73
2023/06/27 06:28:43;;;;;;;14.23;7.03;;;32.80;49.90;;;;;;5048806;28;20362;-74
2023/06/27 06:31:14;;;;;;;14.52;7.07;;;32.70;50.00;;;;;;5054906;28;20033;-76
2023/06/27 06:33:40;;;;;;;13.35;6.88;;;32.80;49.20;;;;;;5054862;28;20118;-75
2023/06/27 06:36:07;;;;;;;11.63;6.75;;;32.90;49.90;;;;;;5055018;28;20033;-76
2023/06/27 06:38:32;;;;;;;14.63;7.03;;;33.10;49.70;;;;;;5054539;28;20100;-74
2023/06/27 06:40:58;;;;;;;11.27;6.70;;;32.90;49.80;;;;;;5054392;28;20029;-75
2023/06/27 06:43:25;;;;;;;11.60;6.72;;;33.00;49.90;;;;;;5054089;28;20084;-74
2023/06/27 06:45:54;;;;;;;15.15;6.70;;;33.00;49.70;;;;;;5030380;28;20033;-74
2023/06/27 06:48:19;;;;;;;15.15;6.90;;;33.10;48.80;;;;;;5046409;28;20040;-76
2023/06/27 06:50:46;;;;;;;18.10;7.18;;;33.30;49.90;;;;;;5055044;28;20024;-77
2023/06/27 06:53:12;;;;;;;15.65;6.95;;;33.40;49.70;;;;;;5054309;28;20044;-76
2023/06/27 06:55:38;;;;;;;10.20;6.28;;;33.40;49.30;;;;;;5054522;28;20037;-76
2023/06/27 06:58:04;;;;;;;12.93;6.30;;;33.20;49.50;;;;;;5054475;28;20064;-77
2023/06/27 07:00:30;;;;;;;13.35;7.20;;;33.20;49.70;;;;;;5054705;28;20029;-76
2023/06/27 07:02:56;;;;;;;10.88;6.55;;;33.20;49.90;;;;;;5036715;28;20055;-77
2023/06/27 07:05:22;;;;;;;16.75;6.80;;;33.20;49.70;;;;;;5036797;28;20108;-76
2023/06/27 07:07:48;;;;;;;16.77;6.93;;;33.20;49.30;;;;;;5054433;28;20037;-76
2023/06/27 07:10:13;;;;;;;14.48;6.65;;;33.30;49.40;;;;;;5054014;28;20025;-76
2023/06/27 07:12:40;;;;;;;11.18;6.38;;;33.20;49.40;;;;;;5053240;28;20091;-76
2023/06/27 07:15:06;;;;;;;16.60;6.72;;;33.20;49.50;;;;;;5054399;28;20029;-78
2023/06/27 07:17:32;;;;;;;13.20;6.88;;;33.20;49.60;;;;;;5037540;28;20045;-76
2023/06/27 07:19:58;;;;;;;12.32;7.38;;;33.20;49.60;;;;;;5054425;28;20072;-77
2023/06/27 07:22:24;;;;;;;13.02;6.32;;;33.30;49.40;;;;;;5053871;28;20037;-76
2023/06/27 07:24:50;;;;;;;12.13;6.95;;;33.20;49.40;;;;;;5052333;28;20064;-78
2023/06/27 07:27:16;;;;;;;15.93;7.32;;;33.20;49.50;;;;;;5053889;28;20033;-76
2023/06/27 07:29:42;;;;;;;15.75;6.65;;;33.20;49.30;;;;;;5053711;28;20098;-76
2023/06/27 07:32:10;;;;;;;12.63;6.50;;;33.10;49.50;;;;;;5035781;28;20479;-77
2023/06/27 07:34:36;;;;;;;14.40;6.65;;;33.10;49.80;;;;;;5053568;28;20036;-77
2023/06/27 07:37:03;;;;;;;14.90;7.28;;;33.10;49.50;;;;;;5053267;28;20371;-76
2023/06/27 07:39:29;;;;;;;12.43;6.32;;;33.20;49.30;;;;;;5053707;28;20469;-76
2023/06/27 07:41:54;;;;;;;12.73;6.78;;;33.10;49.40;;;;;;5054042;28;20104;-78
2023/06/27 07:44:20;;;;;;;14.00;7.20;;;33.10;49.50;;;;;;5053945;28;20144;-77
2023/06/27 07:46:46;;;;;;;13.82;7.72;;;33.00;49.50;;;;;;5053534;28;20371;-76
2023/06/27 07:49:11;;;;;;;13.18;6.85;;;32.90;49.70;;;;;;5035513;28;20037;-76
2023/06/27 07:51:37;;;;;;;12.93;6.75;;;32.90;49.80;;;;;;5053521;28;20029;-76
2023/06/27 07:54:03;;;;;;;11.90;6.50;;;32.90;49.70;;;;;;5053744;28;20099;-77
2023/06/27 07:56:29;;;;;;;13.15;6.53;;;33.00;49.70;;;;;;5053386;28;20056;-75
2023/06/27 07:58:55;;;;;;;12.75;6.80;;;33.00;49.70;;;;;;5053607;28;20040;-75
2023/06/27 08:01:21;;;;;;;10.48;6.75;;;33.10;50.00;;;;;;5053465;28;20076;-75
2023/06/27 08:03:47;;;;;;;11.57;6.68;;;33.10;49.70;;;;;;5053269;28;20083;-77
2023/06/27 08:06:13;;;;;;;12.77;6.78;;;33.10;49.80;;;;;;5053162;28;20108;-77
2023/06/27 08:08:38;;;;;;;13.45;7.03;;;33.00;49.90;;;;;;5053015;28;20109;-77
2023/06/27 08:11:04;;;;;;;11.63;6.35;;;32.90;50.00;;;;;;5052679;28;20064;-77
2023/06/27 08:13:30;;;;;;;15.90;6.70;;;32.90;50.30;;;;;;5053223;28;20398;-76
2023/06/27 08:15:56;;;;;;;11.05;6.00;;;32.90;50.20;;;;;;5053625;28;20068;-77
2023/06/27 08:18:21;;;;;;;12.10;6.65;;;32.90;50.30;;;;;;5053434;28;20025;-77
2023/06/27 08:20:47;;;;;;;12.50;6.25;;;32.80;50.10;;;;;;5053444;28;20048;-77
2023/06/27 08:23:13;;;;;;;11.05;5.82;;;32.70;49.90;;;;;;5053082;28;20056;-76
2023/06/27 08:25:38;;;;;;;11.70;6.00;;;32.60;50.10;;;;;;5052736;28;20033;-77
2023/06/27 08:28:04;;;;;;;11.00;5.95;;;32.60;50.30;;;;;;5053010;28;20513;-77
2023/06/27 08:30:31;;;;;;;13.80;6.45;;;32.50;50.50;;;;;;5052593;28;20043;-76
2023/06/27 08:32:56;;;;;;;12.32;6.15;;;32.40;50.80;;;;;;5052794;28;20037;-74
2023/06/27 08:35:23;;;;;;;11.60;6.60;;;32.30;51.00;;;;;;5052390;28;20033;-77
2023/06/27 08:37:49;;;;;;;8.98;6.22;;;32.20;51.10;;;;;;5052732;28;20091;-77
2023/06/27 08:40:25;;;;;;;16.30;6.80;;;32.20;51.20;;;;;;5053646;28;20390;-76
2023/06/27 08:42:51;;;;;;;13.35;6.30;;;32.10;51.00;;;;;;5053668;28;20471;-76
2023/06/27 08:45:17;;;;;;;14.45;6.63;;;32.00;51.00;;;;;;5052442;28;20068;-77
2023/06/27 08:47:45;;;;;;;12.40;6.90;;;32.00;50.90;;;;;;5052528;28;20116;-78
2023/06/27 08:50:13;;;;;;;9.27;6.32;;;31.90;50.80;;;;;;5052547;28;20037;-77
2023/06/27 08:52:54;;;;;;;13.05;5.75;;;31.90;50.20;;;;;;5052479;28;20060;-77
2023/06/27 08:55:41;;;;;;;7.72;5.88;;;31.90;50.20;;;;;;5052713;28;20497;-76
2023/06/27 08:58:13;;;;;;;14.05;6.13;;;31.90;48.10;;;;;;5052766;28;20389;-77
2023/06/27 09:00:39;;;;;;;10.07;6.50;;;31.80;49.50;;;;;;5052466;28;20114;-76
2023/06/27 09:03:06;;;;;;;10.45;6.80;;;31.80;49.90;;;;;;5052229;28;20037;-77
2023/06/27 09:05:33;;;;;;;11.15;6.25;;;31.80;50.00;;;;;;5052285;28;20025;-77
2023/06/27 09:07:59;;;;;;;11.23;6.72;;;31.80;49.50;;;;;;5052054;28;20025;-76
2023/06/27 09:10:25;;;;;;;11.25;6.47;;;31.80;49.80;;;;;;5052204;28;20052;-78
2023/06/27 09:12:54;;;;;;;8.55;5.70;;;31.80;49.70;;;;;;5052313;28;20118;-77
2023/06/27 09:15:20;;;;;;;14.40;6.63;;;31.80;48.70;;;;;;5052220;28;20029;-77
2023/06/27 09:17:46;;;;;;;11.52;6.30;;;31.80;48.20;;;;;;5052187;28;20036;-76
2023/06/27 09:20:16;;;;;;;10.35;5.72;;;31.70;48.20;;;;;;5052432;28;20037;-78
2023/06/27 09:22:42;;;;;;;10.07;5.45;;;31.80;46.50;;;;;;5052166;28;20108;-77
2023/06/27 09:25:12;;;;;;;10.48;6.10;;;31.60;45.80;;;;;;5053016;28;20398;-76
2023/06/27 09:27:38;;;;;;;10.20;6.32;;;31.70;45.40;;;;;;5052292;28;20096;-78
2023/06/27 09:30:09;;;;;;;11.65;6.45;;;31.80;45.80;;;;;;5052446;28;20111;-77
2023/06/27 09:33:02;;;;;;;11.23;6.85;;;31.70;45.30;;;;;;5053192;28;20037;-77
2023/06/27 09:35:28;;;;;;;10.82;6.10;;;31.80;44.80;;;;;;5048181;28;20037;-77
2023/06/27 09:38:05;;;;;;;10.85;6.43;;;31.80;45.80;;;;;;5051791;28;20033;-78
2023/06/27 09:40:35;;;;;;;10.30;6.18;;;31.90;46.10;;;;;;5051730;28;20022;-77
2023/06/27 09:43:01;;;;;;;13.13;6.40;;;31.90;46.10;;;;;;5051989;28;20041;-77
2023/06/27 09:45:29;;;;;;;14.15;6.82;;;31.90;45.80;;;;;;5051907;28;20048;-77
2023/06/27 09:47:55;;;;;;;11.25;6.45;;;31.90;45.60;;;;;;5053822;28;20498;-79
2023/06/27 09:50:28;;;;;;;10.82;6.40;;;32.00;45.90;;;;;;5055946;28;20033;-77
2023/06/27 09:52:57;;;;;;;11.75;7.20;;;32.00;45.50;;;;;;5055952;28;20342;-77
2023/06/27 09:55:22;;;;;;;9.25;6.25;;;32.00;45.50;;;;;;5056139;28;20033;-77
2023/06/27 09:57:48;;;;;;;12.23;6.70;;;32.10;45.50;;;;;;5055718;28;20044;-77
2023/06/27 10:00:20;;;;;;;11.88;6.25;;;32.10;45.40;;;;;;5055745;28;20044;-79
2023/06/27 10:02:55;;;;;;;7.43;5.88;;;32.10;45.40;;;;;;5055482;28;20048;-76
2023/06/27 10:05:21;;;;;;;8.70;5.97;;;32.10;43.80;;;;;;5055823;28;20082;-76
2023/06/27 10:07:49;;;;;;;7.70;5.03;;;32.10;42.90;;;;;;5055654;28;21071;-76
2023/06/27 10:10:15;;;;;;;7.47;6.18;;;32.10;42.20;;;;;;5055828;28;20617;-78
2023/06/27 10:12:42;;;;;;;10.68;6.03;;;32.10;42.40;;;;;;5056550;28;20033;-80
2023/06/27 10:15:09;;;;;;;9.45;6.22;;;32.10;42.60;;;;;;5055839;28;20040;-77
2023/06/27 10:17:35;;;;;;;9.75;5.95;;;32.20;42.60;;;;;;5055381;28;20104;-77
2023/06/27 10:20:03;;;;;;;11.73;5.93;;;32.20;42.70;;;;;;5055301;28;20044;-77
2023/06/27 10:22:32;;;;;;;9.90;5.93;;;32.20;42.80;;;;;;5055482;28;20122;-79
2023/06/27 10:25:04;;;;;;;10.95;6.20;;;32.20;42.70;;;;;;5055646;28;20041;-77
2023/06/27 10:27:38;;;;;;;10.15;5.97;;;32.20;42.60;;;;;;5038477;28;20039;-78
2023/06/27 21:43:24;;;;;;;11.27;7.20;;;28.00;68.40;;;;;;5036167;28;20052;-69
2023/06/27 21:45:50;;;;;;;10.80;7.18;;;28.00;69.30;;;;;;4982571;28;20213;-69
2023/06/27 21:48:16;;;;;;;12.98;6.88;;;27.90;70.70;;;;;;4980821;28;20138;-68
2023/06/27 21:50:41;;;;;;;12.15;7.60;;;27.90;70.90;;;;;;4983469;28;20483;-66
2023/06/27 21:53:07;;;;;;;13.82;8.07;;;28.00;71.40;;;;;;4981177;28;20408;-68
2023/06/27 21:55:33;;;;;;;16.20;8.55;;;28.00;71.80;;;;;;4981873;28;20427;-67
2023/06/27 21:57:59;;;;;;;12.13;7.32;;;28.00;71.80;;;;;;4980696;28;20065;-69
2023/06/27 22:00:24;;;;;;;13.05;7.65;;;28.00;71.90;;;;;;4965686;28;20042;-68
2023/06/27 22:02:50;;;;;;;11.95;6.70;;;28.10;72.20;;;;;;4988943;28;20030;-68
2023/06/27 22:05:22;;;;;;;12.73;7.55;;;28.00;72.20;;;;;;4973412;28;20077;-67
2023/06/27 22:07:49;;;;;;;13.63;7.90;;;28.00;72.40;;;;;;4991539;28;20137;-69
2023/06/27 22:10:19;;;;;;;14.25;8.00;;;28.00;72.50;;;;;;4992155;28;20074;-68
2023/06/27 22:12:46;;;;;;;14.95;7.50;;;28.00;71.80;;;;;;4992050;28;20045;-67
2023/06/27 22:15:11;;;;;;;14.60;7.15;;;28.00;72.90;;;;;;4992458;28;20039;-68
2023/06/27 22:17:37;;;;;;;14.57;7.28;;;28.00;73.30;;;;;;4992378;28;20093;-67
2023/06/27 22:20:06;;;;;;;16.63;8.40;;;28.00;73.30;;;;;;4992559;28;20515;-67
2023/06/27 22:22:32;;;;;;;13.93;7.85;;;27.90;73.40;;;;;;4992326;28;20077;-67
2023/06/27 22:24:58;;;;;;;15.15;8.13;;;27.90;74.30;;;;;;4992310;28;20046;-67
2023/06/27 22:27:24;;;;;;;11.77;7.30;;;27.90;74.60;;;;;;4992386;28;20030;-66
2023/06/27 22:29:50;;;;;;;12.93;7.75;;;27.90;74.80;;;;;;4992408;28;20038;-68
2023/06/27 22:32:16;;;;;;;11.45;7.25;;;27.90;74.90;;;;;;4992226;28;20030;-67
2023/06/27 22:34:41;;;;;;;12.20;7.70;;;27.90;75.10;;;;;;4992352;28;20534;-68
2023/06/27 22:37:07;;;;;;;12.48;7.68;;;27.90;75.40;;;;;;4992351;28;20443;-68
2023/06/27 22:39:33;;;;;;;11.75;8.30;;;27.80;75.60;;;;;;4992324;28;20043;-67
2023/06/27 22:41:59;;;;;;;12.63;7.90;;;27.80;75.80;;;;;;4992263;28;20035;-67
2023/06/27 22:44:24;;;;;;;16.77;8.43;;;27.80;75.50;;;;;;4992047;28;20403;-66
2023/06/27 22:46:50;;;;;;;11.40;7.70;;;27.80;75.80;;;;;;4992391;28;20031;-67
2023/06/27 22:49:16;;;;;;;11.85;8.40;;;27.70;76.30;;;;;;4992120;28;20558;-67
2023/06/27 22:51:41;;;;;;;12.15;7.70;;;27.70;77.00;;;;;;4992460;28;20045;-66
2023/06/27 22:54:07;;;;;;;11.30;7.85;;;27.60;76.60;;;;;;4992735;28;20118;-67
2023/06/27 22:56:33;;;;;;;14.45;7.72;;;27.60;76.70;;;;;;4995895;28;20133;-67
2023/06/27 22:59:00;;;;;;;11.55;8.20;;;27.60;77.10;;;;;;4996010;28;20026;-67
2023/06/27 23:01:26;;;;;;;13.77;8.00;;;27.60;77.00;;;;;;4995501;28;20035;-68
2023/06/27 23:03:52;;;;;;;14.65;8.60;;;27.50;77.10;;;;;;4995843;28;20490;-67
2023/06/27 23:06:18;;;;;;;12.25;8.50;;;27.50;77.30;;;;;;4995426;28;20038;-67
2023/06/27 23:08:44;;;;;;;13.25;9.27;;;27.50;77.80;;;;;;4995472;28;20506;-66
2023/06/27 23:11:10;;;;;;;12.35;8.50;;;27.40;77.90;;;;;;4995659;28;20034;-67
2023/06/27 23:13:35;;;;;;;13.30;8.45;;;27.40;78.30;;;;;;4995322;28;20038;-67
2023/06/27 23:16:01;;;;;;;11.32;7.72;;;27.40;78.30;;;;;;4977860;28;20034;-67
2023/06/27 23:18:30;;;;;;;14.60;7.47;;;27.40;78.20;;;;;;4995345;28;20412;-67
2023/06/27 23:21:01;;;;;;;12.75;7.22;;;27.40;78.10;;;;;;4995167;28;20050;-67
2023/06/27 23:23:28;;;;;;;13.32;7.72;;;27.40;78.10;;;;;;4995206;28;20034;-67
2023/06/27 23:25:58;;;;;;;13.77;7.50;;;27.40;78.10;;;;;;4995226;28;20504;-67
2023/06/27 23:28:24;;;;;;;11.25;7.95;;;27.40;78.20;;;;;;4995205;28;20026;-68
2023/06/27 23:30:53;;;;;;;13.25;7.63;;;27.40;78.20;;;;;;4995090;28;20123;-67
2023/06/27 23:33:23;;;;;;;15.68;7.97;;;27.30;78.20;;;;;;4995505;28;20057;-67
2023/06/27 23:35:52;;;;;;;14.45;8.38;;;27.30;78.30;;;;;;4995040;28;20026;-67
2023/06/27 23:38:19;;;;;;;18.40;8.20;;;27.40;78.10;;;;;;4995048;28;20399;-68
2023/06/27 23:40:45;;;;;;;14.63;8.77;;;27.40;78.40;;;;;;4994779;28;20035;-68
2023/06/27 23:43:10;;;;;;;11.43;8.27;;;27.40;78.20;;;;;;4994745;28;20042;-68
2023/06/27 23:45:40;;;;;;;12.52;7.65;;;27.30;78.30;;;;;;4994607;28;20562;-67
2023/06/27 23:48:06;;;;;;;15.98;9.02;;;27.30;78.10;;;;;;4977117;28;20038;-67
2023/06/27 23:50:32;;;;;;;13.15;7.93;;;27.30;77.70;;;;;;4994716;28;20035;-68